<?xml version="1.0" encoding="UTF-8" standalone="no" ?>
<gpx xmlns="http://www.topografix.com/GPX/1/1" xmlns:xsi="http://www.w3.org/2001/XMLSchema-instance" xsi:schemaLocation="http://www.topografix.com/GPX/1/1 http://www.topografix.com/GPX/1/1/gpx.xsd" version="1.1" creator="VisuGPX - https://www.visugpx.com">
  <metadata>
    <name>De l'Orbrie au fil de la Vendée</name>
  </metadata>
  <wpt lat="46.48821" lon="-0.78665">
    <ele>27</ele>
    <name><![CDATA[Parking de la Salle Polyvalente]]></name>
  </wpt>
  <wpt lat="46.48962" lon="-0.78123">
    <ele>47</ele>
    <name><![CDATA[À droite Chemin de la Pierrière]]></name>
  </wpt>
  <wpt lat="46.49342" lon="-0.76843">
    <ele>71</ele>
    <name><![CDATA[À gauche sur GR de Pays]]></name>
  </wpt>
  <wpt lat="46.49631" lon="-0.77418">
    <ele>80</ele>
    <name><![CDATA[À gauche à la route]]></name>
  </wpt>
  <wpt lat="46.49434" lon="-0.78198">
    <ele>74</ele>
    <name><![CDATA[Chemin à droite]]></name>
  </wpt>
  <wpt lat="46.50084" lon="-0.78598">
    <ele>31</ele>
    <name><![CDATA[À droite vers la >]]></name>
  </wpt>
  <wpt lat="46.50042" lon="-0.78341">
    <ele>22</ele>
    <name><![CDATA[À droite le long de la clôture]]></name>
  </wpt>
  <wpt lat="46.51038" lon="-0.78238">
    <ele>38</ele>
    <name><![CDATA[Sentier à gauche qui longe la route]]></name>
  </wpt>
  <wpt lat="46.5053" lon="-0.79091">
    <ele>85</ele>
    <name><![CDATA[À gauche sur piste cyclable]]></name>
  </wpt>
  <wpt lat="46.5019" lon="-0.78576">
    <ele>27</ele>
    <name><![CDATA[À droite le long de la rivière]]></name>
  </wpt>
  <wpt lat="46.49603" lon="-0.79892">
    <ele>18</ele>
    <name><![CDATA[À gauche sur D104]]></name>
  </wpt>
  <wpt lat="46.49236" lon="-0.79331">
    <ele>35</ele>
    <name><![CDATA[A droite, Chemin du Rouget]]></name>
  </wpt>
  <wpt lat="46.48513" lon="-0.78749">
    <ele>13</ele>
    <name><![CDATA[A gauche Sentier des Facteurs]]></name>
  </wpt>
  <wpt lat="46.48821" lon="-0.78664">
    <ele>27</ele>
    <name><![CDATA[Parking de la Salle Polyvalente]]></name>
  </wpt>
  <trk>
    <name><![CDATA[De l'Orbrie au fil de la Vendée]]></name>
    <trkseg>
      <trkpt lat="46.48821" lon="-0.78665">
        <ele>27</ele>
        <time>2018-05-29T09:17:37+02:00</time>
      </trkpt>
      <trkpt lat="46.48834" lon="-0.7866">
        <ele>27</ele>
        <time>2018-05-29T09:18:15+02:00</time>
      </trkpt>
      <trkpt lat="46.48847" lon="-0.78656">
        <ele>29</ele>
        <time>2018-05-29T09:18:33+02:00</time>
      </trkpt>
      <trkpt lat="46.48858" lon="-0.78643">
        <ele>31</ele>
        <time>2018-05-29T09:18:45+02:00</time>
      </trkpt>
      <trkpt lat="46.48871" lon="-0.78634">
        <ele>32</ele>
        <time>2018-05-29T09:18:57+02:00</time>
      </trkpt>
      <trkpt lat="46.48881" lon="-0.78618">
        <ele>33</ele>
        <time>2018-05-29T09:19:13+02:00</time>
      </trkpt>
      <trkpt lat="46.48892" lon="-0.78604">
        <ele>34</ele>
        <time>2018-05-29T09:19:23+02:00</time>
      </trkpt>
      <trkpt lat="46.48882" lon="-0.78589">
        <ele>33</ele>
        <time>2018-05-29T09:19:37+02:00</time>
      </trkpt>
      <trkpt lat="46.48869" lon="-0.7858">
        <ele>33</ele>
        <time>2018-05-29T09:19:54+02:00</time>
      </trkpt>
      <trkpt lat="46.48859" lon="-0.78564">
        <ele>33</ele>
        <time>2018-05-29T09:20:35+02:00</time>
      </trkpt>
      <trkpt lat="46.48856" lon="-0.78544">
        <ele>35</ele>
        <time>2018-05-29T09:20:48+02:00</time>
      </trkpt>
      <trkpt lat="46.48847" lon="-0.78529">
        <ele>35</ele>
        <time>2018-05-29T09:21:01+02:00</time>
      </trkpt>
      <trkpt lat="46.48836" lon="-0.78517">
        <ele>36</ele>
        <time>2018-05-29T09:21:13+02:00</time>
      </trkpt>
      <trkpt lat="46.48825" lon="-0.78505">
        <ele>36</ele>
        <time>2018-05-29T09:21:24+02:00</time>
      </trkpt>
      <trkpt lat="46.48819" lon="-0.78487">
        <ele>36</ele>
        <time>2018-05-29T09:21:36+02:00</time>
      </trkpt>
      <trkpt lat="46.48815" lon="-0.78468">
        <ele>36</ele>
        <time>2018-05-29T09:21:48+02:00</time>
      </trkpt>
      <trkpt lat="46.48812" lon="-0.78449">
        <ele>36</ele>
        <time>2018-05-29T09:21:58+02:00</time>
      </trkpt>
      <trkpt lat="46.48809" lon="-0.78428">
        <ele>36</ele>
        <time>2018-05-29T09:22:08+02:00</time>
      </trkpt>
      <trkpt lat="46.48814" lon="-0.7841">
        <ele>37</ele>
        <time>2018-05-29T09:22:20+02:00</time>
      </trkpt>
      <trkpt lat="46.48824" lon="-0.78396">
        <ele>38</ele>
        <time>2018-05-29T09:22:31+02:00</time>
      </trkpt>
      <trkpt lat="46.48836" lon="-0.78386">
        <ele>39</ele>
        <time>2018-05-29T09:22:43+02:00</time>
      </trkpt>
      <trkpt lat="46.48848" lon="-0.78374">
        <ele>40</ele>
        <time>2018-05-29T09:22:56+02:00</time>
      </trkpt>
      <trkpt lat="46.48859" lon="-0.78362">
        <ele>41</ele>
        <time>2018-05-29T09:23:05+02:00</time>
      </trkpt>
      <trkpt lat="46.48864" lon="-0.78357">
        <ele>41</ele>
        <time>2021-10-12T17:21:29+02:00</time>
      </trkpt>
      <trkpt lat="46.48869" lon="-0.78347">
        <ele>42</ele>
        <time>2018-05-29T09:23:19+02:00</time>
      </trkpt>
      <trkpt lat="46.48872" lon="-0.78329">
        <ele>42</ele>
        <time>2018-05-29T09:23:29+02:00</time>
      </trkpt>
      <trkpt lat="46.48879" lon="-0.78306">
        <ele>42</ele>
        <time>2018-05-29T09:23:41+02:00</time>
      </trkpt>
      <trkpt lat="46.48883" lon="-0.78288">
        <ele>43</ele>
        <time>2018-05-29T09:23:51+02:00</time>
      </trkpt>
      <trkpt lat="46.48888" lon="-0.78269">
        <ele>43</ele>
        <time>2018-05-29T09:24:03+02:00</time>
      </trkpt>
      <trkpt lat="46.48893" lon="-0.7825">
        <ele>43</ele>
        <time>2018-05-29T09:24:15+02:00</time>
      </trkpt>
      <trkpt lat="46.48899" lon="-0.78232">
        <ele>44</ele>
        <time>2018-05-29T09:24:27+02:00</time>
      </trkpt>
      <trkpt lat="46.48907" lon="-0.78216">
        <ele>44</ele>
        <time>2018-05-29T09:24:37+02:00</time>
      </trkpt>
      <trkpt lat="46.48914" lon="-0.78198">
        <ele>45</ele>
        <time>2018-05-29T09:24:48+02:00</time>
      </trkpt>
      <trkpt lat="46.48922" lon="-0.78182">
        <ele>46</ele>
        <time>2018-05-29T09:24:59+02:00</time>
      </trkpt>
      <trkpt lat="46.48931" lon="-0.78166">
        <ele>47</ele>
        <time>2018-05-29T09:25:10+02:00</time>
      </trkpt>
      <trkpt lat="46.48939" lon="-0.78149">
        <ele>46</ele>
        <time>2018-05-29T09:25:21+02:00</time>
      </trkpt>
      <trkpt lat="46.48949" lon="-0.78135">
        <ele>46</ele>
        <time>2018-05-29T09:25:33+02:00</time>
      </trkpt>
      <trkpt lat="46.48962" lon="-0.78123">
        <ele>47</ele>
        <time>2018-05-29T09:25:45+02:00</time>
      </trkpt>
      <trkpt lat="46.48959" lon="-0.78102">
        <ele>45</ele>
        <time>2018-05-29T09:26:00+02:00</time>
      </trkpt>
      <trkpt lat="46.48963" lon="-0.7808">
        <ele>44</ele>
        <time>2018-05-29T09:26:12+02:00</time>
      </trkpt>
      <trkpt lat="46.48969" lon="-0.78065">
        <ele>44</ele>
        <time>2018-05-29T09:26:24+02:00</time>
      </trkpt>
      <trkpt lat="46.48977" lon="-0.78048">
        <ele>44</ele>
        <time>2018-05-29T09:26:35+02:00</time>
      </trkpt>
      <trkpt lat="46.48983" lon="-0.78029">
        <ele>43</ele>
        <time>2018-05-29T09:26:47+02:00</time>
      </trkpt>
      <trkpt lat="46.48988" lon="-0.78012">
        <ele>43</ele>
        <time>2018-05-29T09:27:00+02:00</time>
      </trkpt>
      <trkpt lat="46.48992" lon="-0.77993">
        <ele>42</ele>
        <time>2018-05-29T09:27:12+02:00</time>
      </trkpt>
      <trkpt lat="46.48982" lon="-0.77978">
        <ele>41</ele>
        <time>2018-05-29T09:27:25+02:00</time>
      </trkpt>
      <trkpt lat="46.48974" lon="-0.7796">
        <ele>41</ele>
        <time>2018-05-29T09:27:37+02:00</time>
      </trkpt>
      <trkpt lat="46.48977" lon="-0.77941">
        <ele>42</ele>
        <time>2018-05-29T09:27:47+02:00</time>
      </trkpt>
      <trkpt lat="46.48982" lon="-0.77923">
        <ele>42</ele>
        <time>2018-05-29T09:27:58+02:00</time>
      </trkpt>
      <trkpt lat="46.4899" lon="-0.77907">
        <ele>41</ele>
        <time>2018-05-29T09:28:10+02:00</time>
      </trkpt>
      <trkpt lat="46.49" lon="-0.77892">
        <ele>41</ele>
        <time>2018-05-29T09:28:22+02:00</time>
      </trkpt>
      <trkpt lat="46.49013" lon="-0.7788">
        <ele>43</ele>
        <time>2018-05-29T09:28:34+02:00</time>
      </trkpt>
      <trkpt lat="46.49024" lon="-0.77869">
        <ele>45</ele>
        <time>2018-05-29T09:28:46+02:00</time>
      </trkpt>
      <trkpt lat="46.49036" lon="-0.77858">
        <ele>45</ele>
        <time>2018-05-29T09:28:58+02:00</time>
      </trkpt>
      <trkpt lat="46.49046" lon="-0.77849">
        <ele>46</ele>
        <time>2021-10-12T17:24:04+02:00</time>
      </trkpt>
      <trkpt lat="46.4905" lon="-0.77837">
        <ele>46</ele>
        <time>2018-05-29T09:29:08+02:00</time>
      </trkpt>
      <trkpt lat="46.49059" lon="-0.778">
        <ele>46</ele>
        <time>2018-05-29T09:29:46+02:00</time>
      </trkpt>
      <trkpt lat="46.49067" lon="-0.77769">
        <ele>46</ele>
        <time>2018-05-29T09:29:59+02:00</time>
      </trkpt>
      <trkpt lat="46.49074" lon="-0.77713">
        <ele>47</ele>
        <time>2021-10-12T17:24:24+02:00</time>
      </trkpt>
      <trkpt lat="46.49102" lon="-0.77561">
        <ele>51</ele>
        <time>2021-10-12T17:24:29+02:00</time>
      </trkpt>
      <trkpt lat="46.49118" lon="-0.77478">
        <ele>53</ele>
        <time>2021-10-12T17:24:34+02:00</time>
      </trkpt>
      <trkpt lat="46.49136" lon="-0.77389">
        <ele>55</ele>
        <time>2018-05-29T09:34:05+02:00</time>
      </trkpt>
      <trkpt lat="46.49172" lon="-0.77229">
        <ele>57</ele>
        <time>2018-05-29T09:35:35+02:00</time>
      </trkpt>
      <trkpt lat="46.49192" lon="-0.7716">
        <ele>61</ele>
        <time>2021-10-12T17:24:49+02:00</time>
      </trkpt>
      <trkpt lat="46.49267" lon="-0.77021">
        <ele>64</ele>
        <time>2018-05-29T09:38:10+02:00</time>
      </trkpt>
      <trkpt lat="46.49285" lon="-0.76979">
        <ele>65</ele>
        <time>2018-05-29T09:39:00+02:00</time>
      </trkpt>
      <trkpt lat="46.49295" lon="-0.76931">
        <ele>66</ele>
        <time>2018-05-29T09:39:16+02:00</time>
      </trkpt>
      <trkpt lat="46.49342" lon="-0.76843">
        <ele>71</ele>
        <time>2018-05-29T09:39:25+02:00</time>
      </trkpt>
      <trkpt lat="46.49383" lon="-0.76873">
        <ele>76</ele>
        <time>2018-05-29T09:40:59+02:00</time>
      </trkpt>
      <trkpt lat="46.49415" lon="-0.76909">
        <ele>80</ele>
        <time>2018-05-29T09:41:20+02:00</time>
      </trkpt>
      <trkpt lat="46.4945" lon="-0.76966">
        <ele>83</ele>
        <time>2018-05-29T09:42:29+02:00</time>
      </trkpt>
      <trkpt lat="46.49478" lon="-0.7704">
        <ele>85</ele>
        <time>2018-05-29T09:43:05+02:00</time>
      </trkpt>
      <trkpt lat="46.49478" lon="-0.77059">
        <ele>85</ele>
        <time>2018-05-29T09:43:17+02:00</time>
      </trkpt>
      <trkpt lat="46.49474" lon="-0.77091">
        <ele>85</ele>
        <time>2018-05-29T09:43:29+02:00</time>
      </trkpt>
      <trkpt lat="46.49475" lon="-0.77137">
        <ele>84</ele>
        <time>2018-05-29T09:44:23+02:00</time>
      </trkpt>
      <trkpt lat="46.49501" lon="-0.77254">
        <ele>84</ele>
        <time>2018-05-29T09:45:42+02:00</time>
      </trkpt>
      <trkpt lat="46.49503" lon="-0.77295">
        <ele>83</ele>
        <time>2018-05-29T09:45:54+02:00</time>
      </trkpt>
      <trkpt lat="46.49505" lon="-0.77372">
        <ele>82</ele>
        <time>2018-05-29T09:46:42+02:00</time>
      </trkpt>
      <trkpt lat="46.49517" lon="-0.77389">
        <ele>82</ele>
        <time>2018-05-29T09:46:52+02:00</time>
      </trkpt>
      <trkpt lat="46.49544" lon="-0.77404">
        <ele>81</ele>
        <time>2018-05-29T09:47:01+02:00</time>
      </trkpt>
      <trkpt lat="46.49563" lon="-0.77413">
        <ele>81</ele>
        <time>2018-05-29T09:47:10+02:00</time>
      </trkpt>
      <trkpt lat="46.49581" lon="-0.77416">
        <ele>80</ele>
        <time>2018-05-29T09:47:21+02:00</time>
      </trkpt>
      <trkpt lat="46.49596" lon="-0.77415">
        <ele>80</ele>
        <time>2018-05-29T09:47:31+02:00</time>
      </trkpt>
      <trkpt lat="46.49608" lon="-0.77417">
        <ele>80</ele>
        <time>2018-05-29T09:47:39+02:00</time>
      </trkpt>
      <trkpt lat="46.49631" lon="-0.77418">
        <ele>80</ele>
        <time>2018-05-29T09:47:50+02:00</time>
      </trkpt>
      <trkpt lat="46.49623" lon="-0.77439">
        <ele>80</ele>
        <time>2018-05-29T09:48:12+02:00</time>
      </trkpt>
      <trkpt lat="46.49619" lon="-0.77457">
        <ele>80</ele>
        <time>2018-05-29T09:48:26+02:00</time>
      </trkpt>
      <trkpt lat="46.49613" lon="-0.77477">
        <ele>80</ele>
        <time>2018-05-29T09:48:39+02:00</time>
      </trkpt>
      <trkpt lat="46.4961" lon="-0.77497">
        <ele>80</ele>
        <time>2018-05-29T09:48:52+02:00</time>
      </trkpt>
      <trkpt lat="46.49607" lon="-0.77517">
        <ele>80</ele>
        <time>2018-05-29T09:49:04+02:00</time>
      </trkpt>
      <trkpt lat="46.49606" lon="-0.77538">
        <ele>80</ele>
        <time>2018-05-29T09:49:16+02:00</time>
      </trkpt>
      <trkpt lat="46.49604" lon="-0.77558">
        <ele>80</ele>
        <time>2018-05-29T09:49:28+02:00</time>
      </trkpt>
      <trkpt lat="46.49603" lon="-0.77579">
        <ele>81</ele>
        <time>2018-05-29T09:49:40+02:00</time>
      </trkpt>
      <trkpt lat="46.49602" lon="-0.77599">
        <ele>81</ele>
        <time>2018-05-29T09:49:53+02:00</time>
      </trkpt>
      <trkpt lat="46.49599" lon="-0.77618">
        <ele>82</ele>
        <time>2018-05-29T09:50:07+02:00</time>
      </trkpt>
      <trkpt lat="46.49598" lon="-0.77639">
        <ele>82</ele>
        <time>2018-05-29T09:50:20+02:00</time>
      </trkpt>
      <trkpt lat="46.49598" lon="-0.77659">
        <ele>83</ele>
        <time>2018-05-29T09:50:33+02:00</time>
      </trkpt>
      <trkpt lat="46.49597" lon="-0.77682">
        <ele>84</ele>
        <time>2018-05-29T09:50:48+02:00</time>
      </trkpt>
      <trkpt lat="46.49598" lon="-0.777">
        <ele>84</ele>
        <time>2018-05-29T09:50:58+02:00</time>
      </trkpt>
      <trkpt lat="46.49598" lon="-0.77716">
        <ele>85</ele>
        <time>2018-05-29T09:51:10+02:00</time>
      </trkpt>
      <trkpt lat="46.49596" lon="-0.77741">
        <ele>86</ele>
        <time>2018-05-29T09:51:20+02:00</time>
      </trkpt>
      <trkpt lat="46.49592" lon="-0.77761">
        <ele>86</ele>
        <time>2018-05-29T09:51:32+02:00</time>
      </trkpt>
      <trkpt lat="46.4959" lon="-0.77781">
        <ele>86</ele>
        <time>2018-05-29T09:51:45+02:00</time>
      </trkpt>
      <trkpt lat="46.49586" lon="-0.77811">
        <ele>85</ele>
        <time>2018-05-29T09:51:56+02:00</time>
      </trkpt>
      <trkpt lat="46.49584" lon="-0.77827">
        <ele>85</ele>
        <time>2018-05-29T09:52:08+02:00</time>
      </trkpt>
      <trkpt lat="46.49569" lon="-0.77886">
        <ele>82</ele>
        <time>2018-05-29T09:54:07+02:00</time>
      </trkpt>
      <trkpt lat="46.49558" lon="-0.77934">
        <ele>81</ele>
        <time>2018-05-29T09:54:18+02:00</time>
      </trkpt>
      <trkpt lat="46.49541" lon="-0.78006">
        <ele>79</ele>
        <time>2018-05-29T09:54:29+02:00</time>
      </trkpt>
      <trkpt lat="46.49523" lon="-0.78039">
        <ele>78</ele>
        <time>2018-05-29T09:54:43+02:00</time>
      </trkpt>
      <trkpt lat="46.49501" lon="-0.78068">
        <ele>77</ele>
        <time>2018-05-29T09:54:59+02:00</time>
      </trkpt>
      <trkpt lat="46.49485" lon="-0.78091">
        <ele>76</ele>
        <time>2018-05-29T09:55:15+02:00</time>
      </trkpt>
      <trkpt lat="46.49472" lon="-0.78132">
        <ele>75</ele>
        <time>2021-10-12T17:28:49+02:00</time>
      </trkpt>
      <trkpt lat="46.49459" lon="-0.78165">
        <ele>75</ele>
        <time>2021-10-12T17:28:54+02:00</time>
      </trkpt>
      <trkpt lat="46.49434" lon="-0.78198">
        <ele>74</ele>
        <time>2018-05-29T09:55:29+02:00</time>
      </trkpt>
      <trkpt lat="46.4946" lon="-0.78226">
        <ele>75</ele>
        <time>2018-05-29T09:57:31+02:00</time>
      </trkpt>
      <trkpt lat="46.49484" lon="-0.78267">
        <ele>76</ele>
        <time>2018-05-29T09:57:56+02:00</time>
      </trkpt>
      <trkpt lat="46.49494" lon="-0.78309">
        <ele>76</ele>
        <time>2018-05-29T09:58:11+02:00</time>
      </trkpt>
      <trkpt lat="46.49506" lon="-0.78339">
        <ele>76</ele>
        <time>2018-05-29T09:58:23+02:00</time>
      </trkpt>
      <trkpt lat="46.49518" lon="-0.78355">
        <ele>75</ele>
        <time>2018-05-29T09:58:37+02:00</time>
      </trkpt>
      <trkpt lat="46.49532" lon="-0.78351">
        <ele>75</ele>
        <time>2018-05-29T09:58:48+02:00</time>
      </trkpt>
      <trkpt lat="46.49568" lon="-0.78319">
        <ele>75</ele>
        <time>2018-05-29T09:58:56+02:00</time>
      </trkpt>
      <trkpt lat="46.49586" lon="-0.78299">
        <ele>75</ele>
        <time>2018-05-29T09:59:04+02:00</time>
      </trkpt>
      <trkpt lat="46.49608" lon="-0.7828">
        <ele>74</ele>
        <time>2018-05-29T09:59:13+02:00</time>
      </trkpt>
      <trkpt lat="46.49638" lon="-0.78264">
        <ele>74</ele>
        <time>2018-05-29T09:59:24+02:00</time>
      </trkpt>
      <trkpt lat="46.49655" lon="-0.78263">
        <ele>74</ele>
        <time>2018-05-29T09:59:38+02:00</time>
      </trkpt>
      <trkpt lat="46.49686" lon="-0.78286">
        <ele>73</ele>
        <time>2018-05-29T10:00:31+02:00</time>
      </trkpt>
      <trkpt lat="46.49711" lon="-0.7831">
        <ele>72</ele>
        <time>2018-05-29T10:01:06+02:00</time>
      </trkpt>
      <trkpt lat="46.49738" lon="-0.78339">
        <ele>70</ele>
        <time>2018-05-29T10:01:40+02:00</time>
      </trkpt>
      <trkpt lat="46.49763" lon="-0.78363">
        <ele>70</ele>
        <time>2018-05-29T10:02:33+02:00</time>
      </trkpt>
      <trkpt lat="46.4979" lon="-0.78379">
        <ele>69</ele>
        <time>2018-05-29T10:02:54+02:00</time>
      </trkpt>
      <trkpt lat="46.49806" lon="-0.78387">
        <ele>68</ele>
        <time>2018-05-29T10:03:12+02:00</time>
      </trkpt>
      <trkpt lat="46.49822" lon="-0.78404">
        <ele>67</ele>
        <time>2018-05-29T10:03:30+02:00</time>
      </trkpt>
      <trkpt lat="46.49841" lon="-0.78421">
        <ele>65</ele>
        <time>2018-05-29T10:03:52+02:00</time>
      </trkpt>
      <trkpt lat="46.49853" lon="-0.78431">
        <ele>64</ele>
        <time>2018-05-29T10:04:13+02:00</time>
      </trkpt>
      <trkpt lat="46.49869" lon="-0.7845">
        <ele>63</ele>
        <time>2018-05-29T10:04:38+02:00</time>
      </trkpt>
      <trkpt lat="46.49899" lon="-0.78477">
        <ele>60</ele>
        <time>2018-05-29T10:05:31+02:00</time>
      </trkpt>
      <trkpt lat="46.49932" lon="-0.78515">
        <ele>56</ele>
        <time>2018-05-29T10:07:16+02:00</time>
      </trkpt>
      <trkpt lat="46.49949" lon="-0.78529">
        <ele>55</ele>
        <time>2021-10-12T17:30:59+02:00</time>
      </trkpt>
      <trkpt lat="46.4997" lon="-0.78535">
        <ele>52</ele>
        <time>2018-05-29T10:07:34+02:00</time>
      </trkpt>
      <trkpt lat="46.50008" lon="-0.78555">
        <ele>47</ele>
        <time>2018-05-29T10:07:53+02:00</time>
      </trkpt>
      <trkpt lat="46.50045" lon="-0.78581">
        <ele>40</ele>
        <time>2018-05-29T10:08:15+02:00</time>
      </trkpt>
      <trkpt lat="46.50084" lon="-0.78598">
        <ele>31</ele>
        <time>2018-05-29T10:09:17+02:00</time>
      </trkpt>
      <trkpt lat="46.50067" lon="-0.78531">
        <ele>29</ele>
        <time>2018-05-29T10:11:23+02:00</time>
      </trkpt>
      <trkpt lat="46.50046" lon="-0.78476">
        <ele>30</ele>
        <time>2018-05-29T10:11:59+02:00</time>
      </trkpt>
      <trkpt lat="46.50022" lon="-0.78444">
        <ele>31</ele>
        <time>2018-05-29T10:12:22+02:00</time>
      </trkpt>
      <trkpt lat="46.50004" lon="-0.78421">
        <ele>30</ele>
        <time>2018-05-29T10:12:38+02:00</time>
      </trkpt>
      <trkpt lat="46.49984" lon="-0.78389">
        <ele>33</ele>
        <time>2021-10-12T17:31:44+02:00</time>
      </trkpt>
      <trkpt lat="46.49969" lon="-0.78351">
        <ele>36</ele>
        <time>2018-05-29T10:13:27+02:00</time>
      </trkpt>
      <trkpt lat="46.5" lon="-0.78324">
        <ele>20</ele>
        <time>2018-05-29T10:14:23+02:00</time>
      </trkpt>
      <trkpt lat="46.50008" lon="-0.78319">
        <ele>20</ele>
        <time>2018-05-29T10:14:39+02:00</time>
      </trkpt>
      <trkpt lat="46.50022" lon="-0.78333">
        <ele>21</ele>
        <time>2018-05-29T10:14:50+02:00</time>
      </trkpt>
      <trkpt lat="46.50042" lon="-0.78341">
        <ele>22</ele>
        <time>2018-05-29T10:15:00+02:00</time>
      </trkpt>
      <trkpt lat="46.50044" lon="-0.78323">
        <ele>22</ele>
        <time>2018-05-29T10:15:51+02:00</time>
      </trkpt>
      <trkpt lat="46.50051" lon="-0.78293">
        <ele>23</ele>
        <time>2018-05-29T10:16:01+02:00</time>
      </trkpt>
      <trkpt lat="46.50055" lon="-0.78269">
        <ele>24</ele>
        <time>2018-05-29T10:16:13+02:00</time>
      </trkpt>
      <trkpt lat="46.50063" lon="-0.78246">
        <ele>25</ele>
        <time>2018-05-29T10:16:26+02:00</time>
      </trkpt>
      <trkpt lat="46.5007" lon="-0.78223">
        <ele>24</ele>
        <time>2018-05-29T10:16:37+02:00</time>
      </trkpt>
      <trkpt lat="46.50079" lon="-0.78207">
        <ele>24</ele>
        <time>2018-05-29T10:16:48+02:00</time>
      </trkpt>
      <trkpt lat="46.50091" lon="-0.78192">
        <ele>24</ele>
        <time>2018-05-29T10:16:58+02:00</time>
      </trkpt>
      <trkpt lat="46.50103" lon="-0.78181">
        <ele>24</ele>
        <time>2018-05-29T10:17:08+02:00</time>
      </trkpt>
      <trkpt lat="46.50112" lon="-0.78168">
        <ele>23</ele>
        <time>2018-05-29T10:17:21+02:00</time>
      </trkpt>
      <trkpt lat="46.50123" lon="-0.78154">
        <ele>22</ele>
        <time>2018-05-29T10:17:33+02:00</time>
      </trkpt>
      <trkpt lat="46.50135" lon="-0.78141">
        <ele>22</ele>
        <time>2018-05-29T10:17:44+02:00</time>
      </trkpt>
      <trkpt lat="46.5016" lon="-0.78142">
        <ele>23</ele>
        <time>2018-05-29T10:17:55+02:00</time>
      </trkpt>
      <trkpt lat="46.5017" lon="-0.78164">
        <ele>24</ele>
        <time>2018-05-29T10:18:07+02:00</time>
      </trkpt>
      <trkpt lat="46.50175" lon="-0.78179">
        <ele>26</ele>
        <time>2018-05-29T10:18:24+02:00</time>
      </trkpt>
      <trkpt lat="46.5018" lon="-0.7819">
        <ele>28</ele>
        <time>2018-05-29T10:18:39+02:00</time>
      </trkpt>
      <trkpt lat="46.50189" lon="-0.7821">
        <ele>30</ele>
        <time>2018-05-29T10:19:04+02:00</time>
      </trkpt>
      <trkpt lat="46.50195" lon="-0.78225">
        <ele>32</ele>
        <time>2018-05-29T10:19:19+02:00</time>
      </trkpt>
      <trkpt lat="46.50207" lon="-0.78243">
        <ele>33</ele>
        <time>2018-05-29T10:19:35+02:00</time>
      </trkpt>
      <trkpt lat="46.50216" lon="-0.78261">
        <ele>34</ele>
        <time>2018-05-29T10:19:48+02:00</time>
      </trkpt>
      <trkpt lat="46.50225" lon="-0.78275">
        <ele>35</ele>
        <time>2018-05-29T10:19:59+02:00</time>
      </trkpt>
      <trkpt lat="46.50235" lon="-0.78289">
        <ele>37</ele>
        <time>2018-05-29T10:20:11+02:00</time>
      </trkpt>
      <trkpt lat="46.50241" lon="-0.78302">
        <ele>39</ele>
        <time>2018-05-29T10:20:25+02:00</time>
      </trkpt>
      <trkpt lat="46.50251" lon="-0.78316">
        <ele>42</ele>
        <time>2018-05-29T10:20:36+02:00</time>
      </trkpt>
      <trkpt lat="46.50263" lon="-0.78334">
        <ele>42</ele>
        <time>2018-05-29T10:20:51+02:00</time>
      </trkpt>
      <trkpt lat="46.50274" lon="-0.78347">
        <ele>40</ele>
        <time>2018-05-29T10:21:02+02:00</time>
      </trkpt>
      <trkpt lat="46.50284" lon="-0.78362">
        <ele>39</ele>
        <time>2018-05-29T10:21:14+02:00</time>
      </trkpt>
      <trkpt lat="46.50296" lon="-0.78373">
        <ele>38</ele>
        <time>2018-05-29T10:21:29+02:00</time>
      </trkpt>
      <trkpt lat="46.50307" lon="-0.78386">
        <ele>37</ele>
        <time>2018-05-29T10:21:38+02:00</time>
      </trkpt>
      <trkpt lat="46.5032" lon="-0.78396">
        <ele>37</ele>
        <time>2018-05-29T10:21:49+02:00</time>
      </trkpt>
      <trkpt lat="46.50333" lon="-0.78402">
        <ele>35</ele>
        <time>2018-05-29T10:22:04+02:00</time>
      </trkpt>
      <trkpt lat="46.50348" lon="-0.78406">
        <ele>36</ele>
        <time>2018-05-29T10:22:21+02:00</time>
      </trkpt>
      <trkpt lat="46.50361" lon="-0.78417">
        <ele>37</ele>
        <time>2018-05-29T10:22:35+02:00</time>
      </trkpt>
      <trkpt lat="46.50377" lon="-0.78418">
        <ele>37</ele>
        <time>2018-05-29T10:22:51+02:00</time>
      </trkpt>
      <trkpt lat="46.50396" lon="-0.7842">
        <ele>37</ele>
        <time>2018-05-29T10:23:02+02:00</time>
      </trkpt>
      <trkpt lat="46.50404" lon="-0.7842">
        <ele>37</ele>
        <time>2018-05-29T10:23:19+02:00</time>
      </trkpt>
      <trkpt lat="46.50416" lon="-0.7842">
        <ele>37</ele>
        <time>2018-05-29T10:23:36+02:00</time>
      </trkpt>
      <trkpt lat="46.5043" lon="-0.78418">
        <ele>36</ele>
        <time>2018-05-29T10:23:54+02:00</time>
      </trkpt>
      <trkpt lat="46.50442" lon="-0.78418">
        <ele>36</ele>
        <time>2018-05-29T10:24:10+02:00</time>
      </trkpt>
      <trkpt lat="46.50453" lon="-0.78414">
        <ele>35</ele>
        <time>2018-05-29T10:24:27+02:00</time>
      </trkpt>
      <trkpt lat="46.50487" lon="-0.78403">
        <ele>33</ele>
        <time>2021-10-12T17:35:29+02:00</time>
      </trkpt>
      <trkpt lat="46.5051" lon="-0.78397">
        <ele>32</ele>
        <time>2018-05-29T10:25:25+02:00</time>
      </trkpt>
      <trkpt lat="46.50546" lon="-0.78382">
        <ele>30</ele>
        <time>2021-10-12T17:35:39+02:00</time>
      </trkpt>
      <trkpt lat="46.50572" lon="-0.78369">
        <ele>28</ele>
        <time>2021-10-12T17:35:44+02:00</time>
      </trkpt>
      <trkpt lat="46.50593" lon="-0.78366">
        <ele>28</ele>
        <time>2018-05-29T10:27:17+02:00</time>
      </trkpt>
      <trkpt lat="46.50618" lon="-0.7836">
        <ele>29</ele>
        <time>2021-10-12T17:35:54+02:00</time>
      </trkpt>
      <trkpt lat="46.50636" lon="-0.78358">
        <ele>29</ele>
        <time>2021-10-12T17:35:59+02:00</time>
      </trkpt>
      <trkpt lat="46.5067" lon="-0.78352">
        <ele>30</ele>
        <time>2018-05-29T10:28:23+02:00</time>
      </trkpt>
      <trkpt lat="46.50714" lon="-0.78347">
        <ele>32</ele>
        <time>2018-05-29T10:29:29+02:00</time>
      </trkpt>
      <trkpt lat="46.50754" lon="-0.78332">
        <ele>32</ele>
        <time>2018-05-29T10:29:39+02:00</time>
      </trkpt>
      <trkpt lat="46.50777" lon="-0.78321">
        <ele>34</ele>
        <time>2018-05-29T10:29:52+02:00</time>
      </trkpt>
      <trkpt lat="46.50806" lon="-0.78306">
        <ele>35</ele>
        <time>2018-05-29T10:31:04+02:00</time>
      </trkpt>
      <trkpt lat="46.50829" lon="-0.78293">
        <ele>35</ele>
        <time>2018-05-29T10:31:28+02:00</time>
      </trkpt>
      <trkpt lat="46.50881" lon="-0.78258">
        <ele>31</ele>
        <time>2018-05-29T10:32:24+02:00</time>
      </trkpt>
      <trkpt lat="46.50922" lon="-0.78239">
        <ele>30</ele>
        <time>2018-05-29T10:32:34+02:00</time>
      </trkpt>
      <trkpt lat="46.50955" lon="-0.78218">
        <ele>31</ele>
        <time>2018-05-29T10:34:06+02:00</time>
      </trkpt>
      <trkpt lat="46.50999" lon="-0.78179">
        <ele>27</ele>
        <time>2018-05-29T10:34:51+02:00</time>
      </trkpt>
      <trkpt lat="46.51017" lon="-0.78169">
        <ele>26</ele>
        <time>2018-05-29T10:35:12+02:00</time>
      </trkpt>
      <trkpt lat="46.51032" lon="-0.78174">
        <ele>28</ele>
        <time>2018-05-29T10:35:25+02:00</time>
      </trkpt>
      <trkpt lat="46.51037" lon="-0.78193">
        <ele>31</ele>
        <time>2021-10-12T17:37:04+02:00</time>
      </trkpt>
      <trkpt lat="46.51035" lon="-0.78222">
        <ele>36</ele>
        <time>2021-10-12T17:37:09+02:00</time>
      </trkpt>
      <trkpt lat="46.51038" lon="-0.78238">
        <ele>38</ele>
        <time>2021-10-12T17:37:14+02:00</time>
      </trkpt>
      <trkpt lat="46.51032" lon="-0.78266">
        <ele>43</ele>
        <time>2018-05-29T10:40:24+02:00</time>
      </trkpt>
      <trkpt lat="46.51031" lon="-0.7829">
        <ele>47</ele>
        <time>2018-05-29T10:40:36+02:00</time>
      </trkpt>
      <trkpt lat="46.5103" lon="-0.78306">
        <ele>51</ele>
        <time>2018-05-29T10:40:50+02:00</time>
      </trkpt>
      <trkpt lat="46.51035" lon="-0.78335">
        <ele>56</ele>
        <time>2018-05-29T10:41:07+02:00</time>
      </trkpt>
      <trkpt lat="46.51042" lon="-0.78354">
        <ele>59</ele>
        <time>2018-05-29T10:41:25+02:00</time>
      </trkpt>
      <trkpt lat="46.51048" lon="-0.78367">
        <ele>61</ele>
        <time>2018-05-29T10:41:37+02:00</time>
      </trkpt>
      <trkpt lat="46.5105" lon="-0.78378">
        <ele>62</ele>
        <time>2018-05-29T10:41:50+02:00</time>
      </trkpt>
      <trkpt lat="46.51052" lon="-0.78397">
        <ele>65</ele>
        <time>2018-05-29T10:42:05+02:00</time>
      </trkpt>
      <trkpt lat="46.51056" lon="-0.78416">
        <ele>67</ele>
        <time>2018-05-29T10:42:24+02:00</time>
      </trkpt>
      <trkpt lat="46.5106" lon="-0.78431">
        <ele>69</ele>
        <time>2018-05-29T10:42:38+02:00</time>
      </trkpt>
      <trkpt lat="46.51064" lon="-0.78444">
        <ele>70</ele>
        <time>2018-05-29T10:42:52+02:00</time>
      </trkpt>
      <trkpt lat="46.51074" lon="-0.78458">
        <ele>71</ele>
        <time>2018-05-29T10:43:10+02:00</time>
      </trkpt>
      <trkpt lat="46.5108" lon="-0.7847">
        <ele>72</ele>
        <time>2018-05-29T10:44:25+02:00</time>
      </trkpt>
      <trkpt lat="46.51083" lon="-0.7849">
        <ele>74</ele>
        <time>2018-05-29T10:44:54+02:00</time>
      </trkpt>
      <trkpt lat="46.51083" lon="-0.78509">
        <ele>75</ele>
        <time>2018-05-29T10:45:11+02:00</time>
      </trkpt>
      <trkpt lat="46.51082" lon="-0.78532">
        <ele>77</ele>
        <time>2018-05-29T10:45:24+02:00</time>
      </trkpt>
      <trkpt lat="46.5107" lon="-0.78554">
        <ele>78</ele>
        <time>2018-05-29T10:45:36+02:00</time>
      </trkpt>
      <trkpt lat="46.5107" lon="-0.78581">
        <ele>80</ele>
        <time>2018-05-29T10:45:49+02:00</time>
      </trkpt>
      <trkpt lat="46.51068" lon="-0.78601">
        <ele>81</ele>
        <time>2018-05-29T10:46:03+02:00</time>
      </trkpt>
      <trkpt lat="46.51068" lon="-0.78621">
        <ele>82</ele>
        <time>2018-05-29T10:46:18+02:00</time>
      </trkpt>
      <trkpt lat="46.51067" lon="-0.78641">
        <ele>84</ele>
        <time>2018-05-29T10:46:31+02:00</time>
      </trkpt>
      <trkpt lat="46.51069" lon="-0.78661">
        <ele>85</ele>
        <time>2018-05-29T10:46:41+02:00</time>
      </trkpt>
      <trkpt lat="46.51069" lon="-0.78682">
        <ele>86</ele>
        <time>2018-05-29T10:46:52+02:00</time>
      </trkpt>
      <trkpt lat="46.51069" lon="-0.78703">
        <ele>86</ele>
        <time>2018-05-29T10:47:04+02:00</time>
      </trkpt>
      <trkpt lat="46.51069" lon="-0.78725">
        <ele>86</ele>
        <time>2018-05-29T10:47:16+02:00</time>
      </trkpt>
      <trkpt lat="46.5107" lon="-0.78743">
        <ele>87</ele>
        <time>2018-05-29T10:47:27+02:00</time>
      </trkpt>
      <trkpt lat="46.5107" lon="-0.78763">
        <ele>87</ele>
        <time>2018-05-29T10:47:37+02:00</time>
      </trkpt>
      <trkpt lat="46.51071" lon="-0.78785">
        <ele>87</ele>
        <time>2018-05-29T10:47:49+02:00</time>
      </trkpt>
      <trkpt lat="46.51072" lon="-0.78802">
        <ele>86</ele>
        <time>2018-05-29T10:48:00+02:00</time>
      </trkpt>
      <trkpt lat="46.51074" lon="-0.78823">
        <ele>86</ele>
        <time>2018-05-29T10:48:13+02:00</time>
      </trkpt>
      <trkpt lat="46.51079" lon="-0.78843">
        <ele>86</ele>
        <time>2018-05-29T10:48:24+02:00</time>
      </trkpt>
      <trkpt lat="46.51077" lon="-0.78863">
        <ele>87</ele>
        <time>2018-05-29T10:48:38+02:00</time>
      </trkpt>
      <trkpt lat="46.51071" lon="-0.78868">
        <ele>86</ele>
        <time>2018-05-29T10:48:52+02:00</time>
      </trkpt>
      <trkpt lat="46.51036" lon="-0.78881">
        <ele>86</ele>
        <time>2018-05-29T10:49:54+02:00</time>
      </trkpt>
      <trkpt lat="46.50969" lon="-0.78909">
        <ele>82</ele>
        <time>2018-05-29T10:50:51+02:00</time>
      </trkpt>
      <trkpt lat="46.50895" lon="-0.78941">
        <ele>79</ele>
        <time>2018-05-29T10:51:57+02:00</time>
      </trkpt>
      <trkpt lat="46.50881" lon="-0.78947">
        <ele>80</ele>
        <time>2018-05-29T10:52:12+02:00</time>
      </trkpt>
      <trkpt lat="46.50869" lon="-0.78953">
        <ele>80</ele>
        <time>2018-05-29T10:52:24+02:00</time>
      </trkpt>
      <trkpt lat="46.50854" lon="-0.78961">
        <ele>80</ele>
        <time>2018-05-29T10:52:34+02:00</time>
      </trkpt>
      <trkpt lat="46.50839" lon="-0.78966">
        <ele>80</ele>
        <time>2018-05-29T10:52:49+02:00</time>
      </trkpt>
      <trkpt lat="46.50826" lon="-0.78972">
        <ele>80</ele>
        <time>2018-05-29T10:53:05+02:00</time>
      </trkpt>
      <trkpt lat="46.50813" lon="-0.78979">
        <ele>80</ele>
        <time>2018-05-29T10:53:15+02:00</time>
      </trkpt>
      <trkpt lat="46.50799" lon="-0.78983">
        <ele>80</ele>
        <time>2018-05-29T10:53:26+02:00</time>
      </trkpt>
      <trkpt lat="46.50785" lon="-0.78985">
        <ele>79</ele>
        <time>2018-05-29T10:53:36+02:00</time>
      </trkpt>
      <trkpt lat="46.50772" lon="-0.78993">
        <ele>79</ele>
        <time>2018-05-29T10:53:47+02:00</time>
      </trkpt>
      <trkpt lat="46.5076" lon="-0.79">
        <ele>78</ele>
        <time>2018-05-29T10:53:59+02:00</time>
      </trkpt>
      <trkpt lat="46.50745" lon="-0.79006">
        <ele>78</ele>
        <time>2018-05-29T10:54:12+02:00</time>
      </trkpt>
      <trkpt lat="46.50733" lon="-0.79014">
        <ele>78</ele>
        <time>2018-05-29T10:54:25+02:00</time>
      </trkpt>
      <trkpt lat="46.50695" lon="-0.79025">
        <ele>78</ele>
        <time>2018-05-29T10:55:54+02:00</time>
      </trkpt>
      <trkpt lat="46.5063" lon="-0.79051">
        <ele>81</ele>
        <time>2018-05-29T10:56:04+02:00</time>
      </trkpt>
      <trkpt lat="46.50615" lon="-0.79057">
        <ele>82</ele>
        <time>2018-05-29T10:56:14+02:00</time>
      </trkpt>
      <trkpt lat="46.506" lon="-0.79062">
        <ele>83</ele>
        <time>2018-05-29T10:56:25+02:00</time>
      </trkpt>
      <trkpt lat="46.50573" lon="-0.7907">
        <ele>85</ele>
        <time>2018-05-29T10:56:51+02:00</time>
      </trkpt>
      <trkpt lat="46.50557" lon="-0.79078">
        <ele>85</ele>
        <time>2018-05-29T10:57:04+02:00</time>
      </trkpt>
      <trkpt lat="46.50543" lon="-0.79082">
        <ele>85</ele>
        <time>2018-05-29T10:57:15+02:00</time>
      </trkpt>
      <trkpt lat="46.5053" lon="-0.79091">
        <ele>85</ele>
        <time>2018-05-29T10:57:29+02:00</time>
      </trkpt>
      <trkpt lat="46.50517" lon="-0.79068">
        <ele>85</ele>
        <time>2018-05-29T10:57:41+02:00</time>
      </trkpt>
      <trkpt lat="46.50507" lon="-0.7904">
        <ele>85</ele>
        <time>2018-05-29T10:57:53+02:00</time>
      </trkpt>
      <trkpt lat="46.50499" lon="-0.79011">
        <ele>86</ele>
        <time>2018-05-29T10:58:03+02:00</time>
      </trkpt>
      <trkpt lat="46.50495" lon="-0.78988">
        <ele>85</ele>
        <time>2018-05-29T10:58:14+02:00</time>
      </trkpt>
      <trkpt lat="46.50491" lon="-0.78965">
        <ele>84</ele>
        <time>2018-05-29T10:58:25+02:00</time>
      </trkpt>
      <trkpt lat="46.50484" lon="-0.78941">
        <ele>82</ele>
        <time>2018-05-29T10:58:38+02:00</time>
      </trkpt>
      <trkpt lat="46.50475" lon="-0.78923">
        <ele>81</ele>
        <time>2018-05-29T10:58:49+02:00</time>
      </trkpt>
      <trkpt lat="46.5047" lon="-0.78909">
        <ele>80</ele>
        <time>2018-05-29T10:59:02+02:00</time>
      </trkpt>
      <trkpt lat="46.50465" lon="-0.78894">
        <ele>80</ele>
        <time>2018-05-29T10:59:14+02:00</time>
      </trkpt>
      <trkpt lat="46.50461" lon="-0.78879">
        <ele>79</ele>
        <time>2018-05-29T10:59:23+02:00</time>
      </trkpt>
      <trkpt lat="46.50455" lon="-0.78862">
        <ele>79</ele>
        <time>2018-05-29T10:59:33+02:00</time>
      </trkpt>
      <trkpt lat="46.50436" lon="-0.78823">
        <ele>78</ele>
        <time>2018-05-29T10:59:43+02:00</time>
      </trkpt>
      <trkpt lat="46.50426" lon="-0.7878">
        <ele>77</ele>
        <time>2021-10-12T17:42:59+02:00</time>
      </trkpt>
      <trkpt lat="46.50415" lon="-0.7875">
        <ele>77</ele>
        <time>2021-10-12T17:43:04+02:00</time>
      </trkpt>
      <trkpt lat="46.50393" lon="-0.78709">
        <ele>73</ele>
        <time>2021-10-12T17:43:09+02:00</time>
      </trkpt>
      <trkpt lat="46.50376" lon="-0.78663">
        <ele>70</ele>
        <time>2021-10-12T17:43:14+02:00</time>
      </trkpt>
      <trkpt lat="46.50363" lon="-0.78638">
        <ele>67</ele>
        <time>2021-10-12T17:43:19+02:00</time>
      </trkpt>
      <trkpt lat="46.50358" lon="-0.78611">
        <ele>65</ele>
        <time>2021-10-12T17:43:24+02:00</time>
      </trkpt>
      <trkpt lat="46.50366" lon="-0.78596">
        <ele>65</ele>
        <time>2021-10-12T17:43:29+02:00</time>
      </trkpt>
      <trkpt lat="46.5038" lon="-0.78594">
        <ele>66</ele>
        <time>2021-10-12T17:43:34+02:00</time>
      </trkpt>
      <trkpt lat="46.50383" lon="-0.78578">
        <ele>65</ele>
        <time>2021-10-12T17:43:39+02:00</time>
      </trkpt>
      <trkpt lat="46.5038" lon="-0.78565">
        <ele>63</ele>
        <time>2021-10-12T17:43:44+02:00</time>
      </trkpt>
      <trkpt lat="46.50358" lon="-0.78508">
        <ele>55</ele>
        <time>2018-05-29T11:03:40+02:00</time>
      </trkpt>
      <trkpt lat="46.50346" lon="-0.78496">
        <ele>52</ele>
        <time>2018-05-29T11:03:52+02:00</time>
      </trkpt>
      <trkpt lat="46.50337" lon="-0.78485">
        <ele>50</ele>
        <time>2018-05-29T11:04:09+02:00</time>
      </trkpt>
      <trkpt lat="46.50322" lon="-0.78485">
        <ele>49</ele>
        <time>2018-05-29T11:04:22+02:00</time>
      </trkpt>
      <trkpt lat="46.50301" lon="-0.78496">
        <ele>48</ele>
        <time>2018-05-29T11:04:35+02:00</time>
      </trkpt>
      <trkpt lat="46.50285" lon="-0.78508">
        <ele>47</ele>
        <time>2018-05-29T11:04:50+02:00</time>
      </trkpt>
      <trkpt lat="46.50267" lon="-0.78518">
        <ele>45</ele>
        <time>2018-05-29T11:05:18+02:00</time>
      </trkpt>
      <trkpt lat="46.50251" lon="-0.78529">
        <ele>42</ele>
        <time>2018-05-29T11:05:30+02:00</time>
      </trkpt>
      <trkpt lat="46.50238" lon="-0.78534">
        <ele>39</ele>
        <time>2018-05-29T11:05:41+02:00</time>
      </trkpt>
      <trkpt lat="46.50229" lon="-0.78543">
        <ele>37</ele>
        <time>2018-05-29T11:05:55+02:00</time>
      </trkpt>
      <trkpt lat="46.50215" lon="-0.78558">
        <ele>33</ele>
        <time>2018-05-29T11:06:12+02:00</time>
      </trkpt>
      <trkpt lat="46.50201" lon="-0.78555">
        <ele>30</ele>
        <time>2018-05-29T11:06:27+02:00</time>
      </trkpt>
      <trkpt lat="46.5019" lon="-0.78576">
        <ele>27</ele>
        <time>2018-05-29T11:06:45+02:00</time>
      </trkpt>
      <trkpt lat="46.50199" lon="-0.78593">
        <ele>28</ele>
        <time>2018-05-29T11:06:59+02:00</time>
      </trkpt>
      <trkpt lat="46.50207" lon="-0.78611">
        <ele>29</ele>
        <time>2018-05-29T11:07:13+02:00</time>
      </trkpt>
      <trkpt lat="46.50212" lon="-0.78633">
        <ele>30</ele>
        <time>2018-05-29T11:07:24+02:00</time>
      </trkpt>
      <trkpt lat="46.50215" lon="-0.78655">
        <ele>30</ele>
        <time>2018-05-29T11:07:35+02:00</time>
      </trkpt>
      <trkpt lat="46.50221" lon="-0.78673">
        <ele>31</ele>
        <time>2018-05-29T11:07:45+02:00</time>
      </trkpt>
      <trkpt lat="46.50223" lon="-0.78693">
        <ele>30</ele>
        <time>2018-05-29T11:07:55+02:00</time>
      </trkpt>
      <trkpt lat="46.50227" lon="-0.78713">
        <ele>30</ele>
        <time>2018-05-29T11:08:10+02:00</time>
      </trkpt>
      <trkpt lat="46.50233" lon="-0.78732">
        <ele>30</ele>
        <time>2018-05-29T11:08:22+02:00</time>
      </trkpt>
      <trkpt lat="46.50239" lon="-0.7875">
        <ele>29</ele>
        <time>2018-05-29T11:08:33+02:00</time>
      </trkpt>
      <trkpt lat="46.50243" lon="-0.78771">
        <ele>28</ele>
        <time>2018-05-29T11:08:44+02:00</time>
      </trkpt>
      <trkpt lat="46.50251" lon="-0.7879">
        <ele>26</ele>
        <time>2018-05-29T11:08:54+02:00</time>
      </trkpt>
      <trkpt lat="46.50256" lon="-0.78808">
        <ele>27</ele>
        <time>2018-05-29T11:09:04+02:00</time>
      </trkpt>
      <trkpt lat="46.50262" lon="-0.78831">
        <ele>27</ele>
        <time>2018-05-29T11:09:15+02:00</time>
      </trkpt>
      <trkpt lat="46.50267" lon="-0.78849">
        <ele>27</ele>
        <time>2018-05-29T11:09:25+02:00</time>
      </trkpt>
      <trkpt lat="46.5027" lon="-0.78861">
        <ele>28</ele>
        <time>2018-05-29T11:09:36+02:00</time>
      </trkpt>
      <trkpt lat="46.50278" lon="-0.78878">
        <ele>29</ele>
        <time>2018-05-29T11:09:47+02:00</time>
      </trkpt>
      <trkpt lat="46.50287" lon="-0.78898">
        <ele>30</ele>
        <time>2018-05-29T11:09:58+02:00</time>
      </trkpt>
      <trkpt lat="46.50294" lon="-0.7892">
        <ele>30</ele>
        <time>2018-05-29T11:10:13+02:00</time>
      </trkpt>
      <trkpt lat="46.50298" lon="-0.78936">
        <ele>31</ele>
        <time>2018-05-29T11:10:23+02:00</time>
      </trkpt>
      <trkpt lat="46.50305" lon="-0.78953">
        <ele>31</ele>
        <time>2018-05-29T11:10:33+02:00</time>
      </trkpt>
      <trkpt lat="46.50311" lon="-0.7897">
        <ele>31</ele>
        <time>2018-05-29T11:10:43+02:00</time>
      </trkpt>
      <trkpt lat="46.50318" lon="-0.78989">
        <ele>30</ele>
        <time>2018-05-29T11:10:56+02:00</time>
      </trkpt>
      <trkpt lat="46.50324" lon="-0.79008">
        <ele>29</ele>
        <time>2018-05-29T11:11:10+02:00</time>
      </trkpt>
      <trkpt lat="46.50331" lon="-0.79025">
        <ele>28</ele>
        <time>2018-05-29T11:11:22+02:00</time>
      </trkpt>
      <trkpt lat="46.50336" lon="-0.79044">
        <ele>28</ele>
        <time>2018-05-29T11:11:33+02:00</time>
      </trkpt>
      <trkpt lat="46.50342" lon="-0.79065">
        <ele>29</ele>
        <time>2018-05-29T11:11:43+02:00</time>
      </trkpt>
      <trkpt lat="46.50346" lon="-0.7908">
        <ele>30</ele>
        <time>2018-05-29T11:11:53+02:00</time>
      </trkpt>
      <trkpt lat="46.50349" lon="-0.791">
        <ele>30</ele>
        <time>2018-05-29T11:12:02+02:00</time>
      </trkpt>
      <trkpt lat="46.50353" lon="-0.79122">
        <ele>30</ele>
        <time>2018-05-29T11:12:13+02:00</time>
      </trkpt>
      <trkpt lat="46.50356" lon="-0.79142">
        <ele>30</ele>
        <time>2018-05-29T11:12:24+02:00</time>
      </trkpt>
      <trkpt lat="46.5036" lon="-0.79158">
        <ele>31</ele>
        <time>2018-05-29T11:12:36+02:00</time>
      </trkpt>
      <trkpt lat="46.50363" lon="-0.79179">
        <ele>32</ele>
        <time>2018-05-29T11:12:50+02:00</time>
      </trkpt>
      <trkpt lat="46.50365" lon="-0.79199">
        <ele>32</ele>
        <time>2018-05-29T11:13:01+02:00</time>
      </trkpt>
      <trkpt lat="46.50367" lon="-0.79215">
        <ele>32</ele>
        <time>2018-05-29T11:13:15+02:00</time>
      </trkpt>
      <trkpt lat="46.50368" lon="-0.79232">
        <ele>32</ele>
        <time>2018-05-29T11:13:25+02:00</time>
      </trkpt>
      <trkpt lat="46.50373" lon="-0.79255">
        <ele>33</ele>
        <time>2018-05-29T11:13:36+02:00</time>
      </trkpt>
      <trkpt lat="46.50373" lon="-0.79272">
        <ele>34</ele>
        <time>2018-05-29T11:13:48+02:00</time>
      </trkpt>
      <trkpt lat="46.50373" lon="-0.79291">
        <ele>34</ele>
        <time>2018-05-29T11:13:56+02:00</time>
      </trkpt>
      <trkpt lat="46.5037" lon="-0.79307">
        <ele>34</ele>
        <time>2018-05-29T11:14:07+02:00</time>
      </trkpt>
      <trkpt lat="46.50365" lon="-0.79325">
        <ele>34</ele>
        <time>2018-05-29T11:14:17+02:00</time>
      </trkpt>
      <trkpt lat="46.50355" lon="-0.79345">
        <ele>35</ele>
        <time>2018-05-29T11:14:25+02:00</time>
      </trkpt>
      <trkpt lat="46.50344" lon="-0.79356">
        <ele>35</ele>
        <time>2018-05-29T11:14:36+02:00</time>
      </trkpt>
      <trkpt lat="46.50331" lon="-0.79363">
        <ele>35</ele>
        <time>2018-05-29T11:14:47+02:00</time>
      </trkpt>
      <trkpt lat="46.50312" lon="-0.79369">
        <ele>35</ele>
        <time>2018-05-29T11:15:01+02:00</time>
      </trkpt>
      <trkpt lat="46.50296" lon="-0.79365">
        <ele>33</ele>
        <time>2018-05-29T11:15:12+02:00</time>
      </trkpt>
      <trkpt lat="46.50284" lon="-0.79355">
        <ele>29</ele>
        <time>2018-05-29T11:15:23+02:00</time>
      </trkpt>
      <trkpt lat="46.50277" lon="-0.79349">
        <ele>27</ele>
        <time>2018-05-29T11:15:32+02:00</time>
      </trkpt>
      <trkpt lat="46.50263" lon="-0.79353">
        <ele>27</ele>
        <time>2018-05-29T11:15:45+02:00</time>
      </trkpt>
      <trkpt lat="46.50251" lon="-0.79356">
        <ele>27</ele>
        <time>2018-05-29T11:15:58+02:00</time>
      </trkpt>
      <trkpt lat="46.50236" lon="-0.79364">
        <ele>28</ele>
        <time>2018-05-29T11:16:09+02:00</time>
      </trkpt>
      <trkpt lat="46.50223" lon="-0.79368">
        <ele>28</ele>
        <time>2018-05-29T11:16:21+02:00</time>
      </trkpt>
      <trkpt lat="46.50209" lon="-0.79376">
        <ele>28</ele>
        <time>2018-05-29T11:16:30+02:00</time>
      </trkpt>
      <trkpt lat="46.50197" lon="-0.79378">
        <ele>27</ele>
        <time>2018-05-29T11:16:41+02:00</time>
      </trkpt>
      <trkpt lat="46.50184" lon="-0.79384">
        <ele>27</ele>
        <time>2018-05-29T11:16:51+02:00</time>
      </trkpt>
      <trkpt lat="46.5017" lon="-0.7939">
        <ele>25</ele>
        <time>2018-05-29T11:17:00+02:00</time>
      </trkpt>
      <trkpt lat="46.50154" lon="-0.79399">
        <ele>25</ele>
        <time>2018-05-29T11:17:11+02:00</time>
      </trkpt>
      <trkpt lat="46.50139" lon="-0.79403">
        <ele>25</ele>
        <time>2018-05-29T11:17:23+02:00</time>
      </trkpt>
      <trkpt lat="46.50125" lon="-0.79409">
        <ele>24</ele>
        <time>2018-05-29T11:17:33+02:00</time>
      </trkpt>
      <trkpt lat="46.50113" lon="-0.79416">
        <ele>22</ele>
        <time>2018-05-29T11:17:43+02:00</time>
      </trkpt>
      <trkpt lat="46.50102" lon="-0.79423">
        <ele>23</ele>
        <time>2018-05-29T11:17:55+02:00</time>
      </trkpt>
      <trkpt lat="46.50088" lon="-0.79431">
        <ele>23</ele>
        <time>2018-05-29T11:18:06+02:00</time>
      </trkpt>
      <trkpt lat="46.50076" lon="-0.79439">
        <ele>23</ele>
        <time>2018-05-29T11:18:21+02:00</time>
      </trkpt>
      <trkpt lat="46.50063" lon="-0.79449">
        <ele>24</ele>
        <time>2018-05-29T11:18:31+02:00</time>
      </trkpt>
      <trkpt lat="46.50051" lon="-0.7946">
        <ele>23</ele>
        <time>2018-05-29T11:18:41+02:00</time>
      </trkpt>
      <trkpt lat="46.50039" lon="-0.79467">
        <ele>23</ele>
        <time>2018-05-29T11:18:50+02:00</time>
      </trkpt>
      <trkpt lat="46.50028" lon="-0.79483">
        <ele>22</ele>
        <time>2018-05-29T11:18:59+02:00</time>
      </trkpt>
      <trkpt lat="46.50019" lon="-0.79499">
        <ele>21</ele>
        <time>2018-05-29T11:19:11+02:00</time>
      </trkpt>
      <trkpt lat="46.50011" lon="-0.79513">
        <ele>20</ele>
        <time>2018-05-29T11:19:22+02:00</time>
      </trkpt>
      <trkpt lat="46.50002" lon="-0.79525">
        <ele>20</ele>
        <time>2018-05-29T11:19:44+02:00</time>
      </trkpt>
      <trkpt lat="46.49989" lon="-0.79529">
        <ele>20</ele>
        <time>2018-05-29T11:20:00+02:00</time>
      </trkpt>
      <trkpt lat="46.49974" lon="-0.79525">
        <ele>20</ele>
        <time>2018-05-29T11:20:12+02:00</time>
      </trkpt>
      <trkpt lat="46.49959" lon="-0.79528">
        <ele>20</ele>
        <time>2018-05-29T11:20:24+02:00</time>
      </trkpt>
      <trkpt lat="46.49946" lon="-0.79536">
        <ele>20</ele>
        <time>2018-05-29T11:20:36+02:00</time>
      </trkpt>
      <trkpt lat="46.49932" lon="-0.79543">
        <ele>20</ele>
        <time>2018-05-29T11:20:49+02:00</time>
      </trkpt>
      <trkpt lat="46.49919" lon="-0.79554">
        <ele>20</ele>
        <time>2018-05-29T11:20:59+02:00</time>
      </trkpt>
      <trkpt lat="46.49909" lon="-0.79563">
        <ele>20</ele>
        <time>2018-05-29T11:21:08+02:00</time>
      </trkpt>
      <trkpt lat="46.49895" lon="-0.79577">
        <ele>20</ele>
        <time>2018-05-29T11:21:19+02:00</time>
      </trkpt>
      <trkpt lat="46.49883" lon="-0.79586">
        <ele>19</ele>
        <time>2018-05-29T11:21:28+02:00</time>
      </trkpt>
      <trkpt lat="46.49856" lon="-0.79607">
        <ele>20</ele>
        <time>2018-05-29T11:22:06+02:00</time>
      </trkpt>
      <trkpt lat="46.49837" lon="-0.79631">
        <ele>19</ele>
        <time>2018-05-29T11:22:16+02:00</time>
      </trkpt>
      <trkpt lat="46.49827" lon="-0.79645">
        <ele>19</ele>
        <time>2018-05-29T11:22:27+02:00</time>
      </trkpt>
      <trkpt lat="46.49816" lon="-0.79658">
        <ele>19</ele>
        <time>2018-05-29T11:22:38+02:00</time>
      </trkpt>
      <trkpt lat="46.49806" lon="-0.79667">
        <ele>19</ele>
        <time>2018-05-29T11:22:45+02:00</time>
      </trkpt>
      <trkpt lat="46.49795" lon="-0.7968">
        <ele>21</ele>
        <time>2018-05-29T11:22:54+02:00</time>
      </trkpt>
      <trkpt lat="46.49783" lon="-0.79692">
        <ele>22</ele>
        <time>2018-05-29T11:23:05+02:00</time>
      </trkpt>
      <trkpt lat="46.49771" lon="-0.79704">
        <ele>23</ele>
        <time>2018-05-29T11:23:14+02:00</time>
      </trkpt>
      <trkpt lat="46.49759" lon="-0.79716">
        <ele>23</ele>
        <time>2018-05-29T11:23:25+02:00</time>
      </trkpt>
      <trkpt lat="46.49748" lon="-0.79729">
        <ele>22</ele>
        <time>2018-05-29T11:23:36+02:00</time>
      </trkpt>
      <trkpt lat="46.49738" lon="-0.79742">
        <ele>22</ele>
        <time>2018-05-29T11:23:45+02:00</time>
      </trkpt>
      <trkpt lat="46.49727" lon="-0.79753">
        <ele>22</ele>
        <time>2018-05-29T11:23:55+02:00</time>
      </trkpt>
      <trkpt lat="46.49715" lon="-0.79766">
        <ele>23</ele>
        <time>2018-05-29T11:24:08+02:00</time>
      </trkpt>
      <trkpt lat="46.49703" lon="-0.79779">
        <ele>23</ele>
        <time>2018-05-29T11:24:19+02:00</time>
      </trkpt>
      <trkpt lat="46.49693" lon="-0.79794">
        <ele>23</ele>
        <time>2018-05-29T11:24:28+02:00</time>
      </trkpt>
      <trkpt lat="46.49684" lon="-0.79805">
        <ele>23</ele>
        <time>2018-05-29T11:24:39+02:00</time>
      </trkpt>
      <trkpt lat="46.49674" lon="-0.7982">
        <ele>22</ele>
        <time>2018-05-29T11:24:49+02:00</time>
      </trkpt>
      <trkpt lat="46.49663" lon="-0.79833">
        <ele>21</ele>
        <time>2018-05-29T11:24:58+02:00</time>
      </trkpt>
      <trkpt lat="46.49653" lon="-0.79848">
        <ele>21</ele>
        <time>2018-05-29T11:25:11+02:00</time>
      </trkpt>
      <trkpt lat="46.49643" lon="-0.79857">
        <ele>21</ele>
        <time>2018-05-29T11:25:24+02:00</time>
      </trkpt>
      <trkpt lat="46.49632" lon="-0.79868">
        <ele>20</ele>
        <time>2018-05-29T11:25:36+02:00</time>
      </trkpt>
      <trkpt lat="46.49619" lon="-0.79879">
        <ele>20</ele>
        <time>2018-05-29T11:25:48+02:00</time>
      </trkpt>
      <trkpt lat="46.49603" lon="-0.79892">
        <ele>18</ele>
        <time>2018-05-29T11:26:09+02:00</time>
      </trkpt>
      <trkpt lat="46.49595" lon="-0.79875">
        <ele>17</ele>
        <time>2018-05-29T11:26:23+02:00</time>
      </trkpt>
      <trkpt lat="46.49587" lon="-0.79858">
        <ele>15</ele>
        <time>2018-05-29T11:26:35+02:00</time>
      </trkpt>
      <trkpt lat="46.4958" lon="-0.7984">
        <ele>14</ele>
        <time>2018-05-29T11:26:47+02:00</time>
      </trkpt>
      <trkpt lat="46.49571" lon="-0.79823">
        <ele>15</ele>
        <time>2018-05-29T11:26:59+02:00</time>
      </trkpt>
      <trkpt lat="46.49563" lon="-0.79806">
        <ele>16</ele>
        <time>2018-05-29T11:27:11+02:00</time>
      </trkpt>
      <trkpt lat="46.49558" lon="-0.79788">
        <ele>18</ele>
        <time>2018-05-29T11:27:22+02:00</time>
      </trkpt>
      <trkpt lat="46.49549" lon="-0.79771">
        <ele>19</ele>
        <time>2018-05-29T11:27:35+02:00</time>
      </trkpt>
      <trkpt lat="46.49541" lon="-0.79756">
        <ele>20</ele>
        <time>2018-05-29T11:27:51+02:00</time>
      </trkpt>
      <trkpt lat="46.49531" lon="-0.7974">
        <ele>22</ele>
        <time>2018-05-29T11:28:04+02:00</time>
      </trkpt>
      <trkpt lat="46.4952" lon="-0.79727">
        <ele>23</ele>
        <time>2018-05-29T11:28:17+02:00</time>
      </trkpt>
      <trkpt lat="46.49508" lon="-0.79715">
        <ele>24</ele>
        <time>2018-05-29T11:28:29+02:00</time>
      </trkpt>
      <trkpt lat="46.49497" lon="-0.79702">
        <ele>25</ele>
        <time>2018-05-29T11:28:41+02:00</time>
      </trkpt>
      <trkpt lat="46.49486" lon="-0.7969">
        <ele>26</ele>
        <time>2018-05-29T11:28:52+02:00</time>
      </trkpt>
      <trkpt lat="46.49474" lon="-0.79678">
        <ele>27</ele>
        <time>2018-05-29T11:29:04+02:00</time>
      </trkpt>
      <trkpt lat="46.49463" lon="-0.79665">
        <ele>28</ele>
        <time>2018-05-29T11:29:15+02:00</time>
      </trkpt>
      <trkpt lat="46.49452" lon="-0.79651">
        <ele>29</ele>
        <time>2018-05-29T11:29:27+02:00</time>
      </trkpt>
      <trkpt lat="46.4944" lon="-0.79639">
        <ele>29</ele>
        <time>2018-05-29T11:29:37+02:00</time>
      </trkpt>
      <trkpt lat="46.49429" lon="-0.79628">
        <ele>29</ele>
        <time>2018-05-29T11:29:47+02:00</time>
      </trkpt>
      <trkpt lat="46.49417" lon="-0.79616">
        <ele>29</ele>
        <time>2018-05-29T11:29:58+02:00</time>
      </trkpt>
      <trkpt lat="46.49406" lon="-0.79603">
        <ele>30</ele>
        <time>2018-05-29T11:30:09+02:00</time>
      </trkpt>
      <trkpt lat="46.49395" lon="-0.7959">
        <ele>31</ele>
        <time>2018-05-29T11:30:21+02:00</time>
      </trkpt>
      <trkpt lat="46.49384" lon="-0.79578">
        <ele>32</ele>
        <time>2018-05-29T11:30:32+02:00</time>
      </trkpt>
      <trkpt lat="46.49373" lon="-0.79566">
        <ele>33</ele>
        <time>2018-05-29T11:30:43+02:00</time>
      </trkpt>
      <trkpt lat="46.49362" lon="-0.79552">
        <ele>34</ele>
        <time>2018-05-29T11:30:55+02:00</time>
      </trkpt>
      <trkpt lat="46.49349" lon="-0.79545">
        <ele>34</ele>
        <time>2018-05-29T11:31:09+02:00</time>
      </trkpt>
      <trkpt lat="46.49338" lon="-0.79529">
        <ele>35</ele>
        <time>2018-05-29T11:31:20+02:00</time>
      </trkpt>
      <trkpt lat="46.49326" lon="-0.79515">
        <ele>36</ele>
        <time>2018-05-29T11:31:30+02:00</time>
      </trkpt>
      <trkpt lat="46.49316" lon="-0.79504">
        <ele>36</ele>
        <time>2018-05-29T11:31:41+02:00</time>
      </trkpt>
      <trkpt lat="46.49305" lon="-0.7949">
        <ele>36</ele>
        <time>2018-05-29T11:31:53+02:00</time>
      </trkpt>
      <trkpt lat="46.49295" lon="-0.79479">
        <ele>35</ele>
        <time>2018-05-29T11:32:03+02:00</time>
      </trkpt>
      <trkpt lat="46.49284" lon="-0.79464">
        <ele>35</ele>
        <time>2018-05-29T11:32:14+02:00</time>
      </trkpt>
      <trkpt lat="46.49273" lon="-0.79451">
        <ele>35</ele>
        <time>2018-05-29T11:32:25+02:00</time>
      </trkpt>
      <trkpt lat="46.49262" lon="-0.79437">
        <ele>34</ele>
        <time>2018-05-29T11:32:35+02:00</time>
      </trkpt>
      <trkpt lat="46.49251" lon="-0.79424">
        <ele>34</ele>
        <time>2018-05-29T11:32:46+02:00</time>
      </trkpt>
      <trkpt lat="46.49247" lon="-0.79409">
        <ele>34</ele>
        <time>2018-05-29T11:32:56+02:00</time>
      </trkpt>
      <trkpt lat="46.49243" lon="-0.79391">
        <ele>34</ele>
        <time>2018-05-29T11:33:06+02:00</time>
      </trkpt>
      <trkpt lat="46.49238" lon="-0.7937">
        <ele>34</ele>
        <time>2018-05-29T11:33:17+02:00</time>
      </trkpt>
      <trkpt lat="46.49236" lon="-0.79331">
        <ele>35</ele>
        <time>2018-05-29T11:33:29+02:00</time>
      </trkpt>
      <trkpt lat="46.49222" lon="-0.79342">
        <ele>34</ele>
        <time>2018-05-29T11:33:46+02:00</time>
      </trkpt>
      <trkpt lat="46.49211" lon="-0.79351">
        <ele>33</ele>
        <time>2018-05-29T11:34:09+02:00</time>
      </trkpt>
      <trkpt lat="46.49198" lon="-0.79359">
        <ele>32</ele>
        <time>2018-05-29T11:34:22+02:00</time>
      </trkpt>
      <trkpt lat="46.49185" lon="-0.79368">
        <ele>31</ele>
        <time>2018-05-29T11:34:34+02:00</time>
      </trkpt>
      <trkpt lat="46.49174" lon="-0.79377">
        <ele>30</ele>
        <time>2018-05-29T11:34:45+02:00</time>
      </trkpt>
      <trkpt lat="46.4916" lon="-0.79389">
        <ele>30</ele>
        <time>2018-05-29T11:34:57+02:00</time>
      </trkpt>
      <trkpt lat="46.49148" lon="-0.79381">
        <ele>29</ele>
        <time>2018-05-29T11:35:07+02:00</time>
      </trkpt>
      <trkpt lat="46.49136" lon="-0.79369">
        <ele>29</ele>
        <time>2018-05-29T11:35:18+02:00</time>
      </trkpt>
      <trkpt lat="46.49124" lon="-0.79358">
        <ele>29</ele>
        <time>2018-05-29T11:35:29+02:00</time>
      </trkpt>
      <trkpt lat="46.49112" lon="-0.79347">
        <ele>29</ele>
        <time>2018-05-29T11:35:39+02:00</time>
      </trkpt>
      <trkpt lat="46.49098" lon="-0.79336">
        <ele>29</ele>
        <time>2018-05-29T11:35:50+02:00</time>
      </trkpt>
      <trkpt lat="46.49085" lon="-0.79329">
        <ele>29</ele>
        <time>2018-05-29T11:36:02+02:00</time>
      </trkpt>
      <trkpt lat="46.49071" lon="-0.79334">
        <ele>29</ele>
        <time>2018-05-29T11:36:13+02:00</time>
      </trkpt>
      <trkpt lat="46.49058" lon="-0.7934">
        <ele>28</ele>
        <time>2018-05-29T11:36:23+02:00</time>
      </trkpt>
      <trkpt lat="46.49044" lon="-0.79344">
        <ele>28</ele>
        <time>2018-05-29T11:36:34+02:00</time>
      </trkpt>
      <trkpt lat="46.49031" lon="-0.7935">
        <ele>27</ele>
        <time>2018-05-29T11:36:45+02:00</time>
      </trkpt>
      <trkpt lat="46.49017" lon="-0.79353">
        <ele>27</ele>
        <time>2018-05-29T11:36:57+02:00</time>
      </trkpt>
      <trkpt lat="46.49004" lon="-0.7936">
        <ele>26</ele>
        <time>2018-05-29T11:37:08+02:00</time>
      </trkpt>
      <trkpt lat="46.48991" lon="-0.79367">
        <ele>25</ele>
        <time>2018-05-29T11:37:19+02:00</time>
      </trkpt>
      <trkpt lat="46.48978" lon="-0.79376">
        <ele>24</ele>
        <time>2018-05-29T11:37:33+02:00</time>
      </trkpt>
      <trkpt lat="46.48966" lon="-0.79384">
        <ele>24</ele>
        <time>2018-05-29T11:37:45+02:00</time>
      </trkpt>
      <trkpt lat="46.48951" lon="-0.7939">
        <ele>23</ele>
        <time>2018-05-29T11:37:57+02:00</time>
      </trkpt>
      <trkpt lat="46.48938" lon="-0.79395">
        <ele>23</ele>
        <time>2018-05-29T11:38:08+02:00</time>
      </trkpt>
      <trkpt lat="46.48924" lon="-0.794">
        <ele>22</ele>
        <time>2018-05-29T11:38:19+02:00</time>
      </trkpt>
      <trkpt lat="46.4891" lon="-0.79401">
        <ele>22</ele>
        <time>2018-05-29T11:38:28+02:00</time>
      </trkpt>
      <trkpt lat="46.48897" lon="-0.79403">
        <ele>22</ele>
        <time>2018-05-29T11:38:39+02:00</time>
      </trkpt>
      <trkpt lat="46.48884" lon="-0.79405">
        <ele>21</ele>
        <time>2018-05-29T11:38:50+02:00</time>
      </trkpt>
      <trkpt lat="46.48871" lon="-0.7941">
        <ele>21</ele>
        <time>2018-05-29T11:39:03+02:00</time>
      </trkpt>
      <trkpt lat="46.48857" lon="-0.79418">
        <ele>21</ele>
        <time>2018-05-29T11:39:15+02:00</time>
      </trkpt>
      <trkpt lat="46.48844" lon="-0.79429">
        <ele>20</ele>
        <time>2018-05-29T11:39:26+02:00</time>
      </trkpt>
      <trkpt lat="46.48832" lon="-0.79437">
        <ele>20</ele>
        <time>2018-05-29T11:39:36+02:00</time>
      </trkpt>
      <trkpt lat="46.48819" lon="-0.79445">
        <ele>19</ele>
        <time>2018-05-29T11:39:47+02:00</time>
      </trkpt>
      <trkpt lat="46.48808" lon="-0.79452">
        <ele>18</ele>
        <time>2018-05-29T11:39:56+02:00</time>
      </trkpt>
      <trkpt lat="46.48795" lon="-0.7946">
        <ele>17</ele>
        <time>2018-05-29T11:40:06+02:00</time>
      </trkpt>
      <trkpt lat="46.48782" lon="-0.7944">
        <ele>17</ele>
        <time>2018-05-29T11:40:17+02:00</time>
      </trkpt>
      <trkpt lat="46.48771" lon="-0.79425">
        <ele>16</ele>
        <time>2018-05-29T11:40:28+02:00</time>
      </trkpt>
      <trkpt lat="46.48762" lon="-0.79411">
        <ele>16</ele>
        <time>2018-05-29T11:40:38+02:00</time>
      </trkpt>
      <trkpt lat="46.48752" lon="-0.79397">
        <ele>15</ele>
        <time>2018-05-29T11:40:49+02:00</time>
      </trkpt>
      <trkpt lat="46.48741" lon="-0.79381">
        <ele>15</ele>
        <time>2018-05-29T11:40:59+02:00</time>
      </trkpt>
      <trkpt lat="46.48733" lon="-0.79366">
        <ele>15</ele>
        <time>2018-05-29T11:41:10+02:00</time>
      </trkpt>
      <trkpt lat="46.48724" lon="-0.79348">
        <ele>15</ele>
        <time>2018-05-29T11:41:21+02:00</time>
      </trkpt>
      <trkpt lat="46.48723" lon="-0.79328">
        <ele>15</ele>
        <time>2018-05-29T11:41:31+02:00</time>
      </trkpt>
      <trkpt lat="46.48724" lon="-0.79307">
        <ele>15</ele>
        <time>2018-05-29T11:41:42+02:00</time>
      </trkpt>
      <trkpt lat="46.48725" lon="-0.7928">
        <ele>16</ele>
        <time>2018-05-29T11:41:53+02:00</time>
      </trkpt>
      <trkpt lat="46.4872" lon="-0.79265">
        <ele>16</ele>
        <time>2018-05-29T11:42:03+02:00</time>
      </trkpt>
      <trkpt lat="46.48712" lon="-0.79248">
        <ele>16</ele>
        <time>2018-05-29T11:42:13+02:00</time>
      </trkpt>
      <trkpt lat="46.48706" lon="-0.79231">
        <ele>16</ele>
        <time>2018-05-29T11:42:23+02:00</time>
      </trkpt>
      <trkpt lat="46.487" lon="-0.79207">
        <ele>16</ele>
        <time>2018-05-29T11:42:33+02:00</time>
      </trkpt>
      <trkpt lat="46.48695" lon="-0.79191">
        <ele>16</ele>
        <time>2018-05-29T11:42:45+02:00</time>
      </trkpt>
      <trkpt lat="46.4869" lon="-0.79176">
        <ele>16</ele>
        <time>2018-05-29T11:42:56+02:00</time>
      </trkpt>
      <trkpt lat="46.48684" lon="-0.79158">
        <ele>16</ele>
        <time>2018-05-29T11:43:07+02:00</time>
      </trkpt>
      <trkpt lat="46.48678" lon="-0.79139">
        <ele>16</ele>
        <time>2018-05-29T11:43:18+02:00</time>
      </trkpt>
      <trkpt lat="46.48672" lon="-0.7912">
        <ele>16</ele>
        <time>2018-05-29T11:43:29+02:00</time>
      </trkpt>
      <trkpt lat="46.48665" lon="-0.79103">
        <ele>16</ele>
        <time>2018-05-29T11:43:39+02:00</time>
      </trkpt>
      <trkpt lat="46.48657" lon="-0.79086">
        <ele>16</ele>
        <time>2018-05-29T11:43:50+02:00</time>
      </trkpt>
      <trkpt lat="46.48646" lon="-0.79073">
        <ele>15</ele>
        <time>2018-05-29T11:44:00+02:00</time>
      </trkpt>
      <trkpt lat="46.48637" lon="-0.7906">
        <ele>15</ele>
        <time>2018-05-29T11:44:11+02:00</time>
      </trkpt>
      <trkpt lat="46.48626" lon="-0.79047">
        <ele>15</ele>
        <time>2018-05-29T11:44:22+02:00</time>
      </trkpt>
      <trkpt lat="46.4862" lon="-0.79029">
        <ele>15</ele>
        <time>2018-05-29T11:44:33+02:00</time>
      </trkpt>
      <trkpt lat="46.48612" lon="-0.79013">
        <ele>15</ele>
        <time>2018-05-29T11:44:42+02:00</time>
      </trkpt>
      <trkpt lat="46.48606" lon="-0.78995">
        <ele>15</ele>
        <time>2018-05-29T11:44:54+02:00</time>
      </trkpt>
      <trkpt lat="46.48599" lon="-0.78978">
        <ele>15</ele>
        <time>2018-05-29T11:45:04+02:00</time>
      </trkpt>
      <trkpt lat="46.48594" lon="-0.78958">
        <ele>14</ele>
        <time>2018-05-29T11:45:15+02:00</time>
      </trkpt>
      <trkpt lat="46.48589" lon="-0.78939">
        <ele>14</ele>
        <time>2018-05-29T11:45:25+02:00</time>
      </trkpt>
      <trkpt lat="46.48584" lon="-0.78921">
        <ele>14</ele>
        <time>2018-05-29T11:45:36+02:00</time>
      </trkpt>
      <trkpt lat="46.48579" lon="-0.78901">
        <ele>14</ele>
        <time>2018-05-29T11:45:47+02:00</time>
      </trkpt>
      <trkpt lat="46.48572" lon="-0.78883">
        <ele>14</ele>
        <time>2018-05-29T11:45:57+02:00</time>
      </trkpt>
      <trkpt lat="46.48566" lon="-0.78865">
        <ele>14</ele>
        <time>2018-05-29T11:46:08+02:00</time>
      </trkpt>
      <trkpt lat="46.48561" lon="-0.78845">
        <ele>14</ele>
        <time>2018-05-29T11:46:19+02:00</time>
      </trkpt>
      <trkpt lat="46.48556" lon="-0.78827">
        <ele>14</ele>
        <time>2018-05-29T11:46:29+02:00</time>
      </trkpt>
      <trkpt lat="46.48551" lon="-0.78808">
        <ele>14</ele>
        <time>2018-05-29T11:46:40+02:00</time>
      </trkpt>
      <trkpt lat="46.48543" lon="-0.78791">
        <ele>14</ele>
        <time>2018-05-29T11:46:50+02:00</time>
      </trkpt>
      <trkpt lat="46.48533" lon="-0.78776">
        <ele>14</ele>
        <time>2018-05-29T11:47:00+02:00</time>
      </trkpt>
      <trkpt lat="46.48523" lon="-0.78763">
        <ele>14</ele>
        <time>2018-05-29T11:47:10+02:00</time>
      </trkpt>
      <trkpt lat="46.48513" lon="-0.78749">
        <ele>13</ele>
        <time>2018-05-29T11:47:20+02:00</time>
      </trkpt>
      <trkpt lat="46.48524" lon="-0.78736">
        <ele>13</ele>
        <time>2018-05-29T11:47:50+02:00</time>
      </trkpt>
      <trkpt lat="46.48538" lon="-0.78725">
        <ele>14</ele>
        <time>2018-05-29T11:48:02+02:00</time>
      </trkpt>
      <trkpt lat="46.48549" lon="-0.78718">
        <ele>14</ele>
        <time>2018-05-29T11:48:16+02:00</time>
      </trkpt>
      <trkpt lat="46.48564" lon="-0.78725">
        <ele>14</ele>
        <time>2018-05-29T11:48:29+02:00</time>
      </trkpt>
      <trkpt lat="46.48577" lon="-0.78731">
        <ele>15</ele>
        <time>2018-05-29T11:48:41+02:00</time>
      </trkpt>
      <trkpt lat="46.48591" lon="-0.78737">
        <ele>15</ele>
        <time>2018-05-29T11:48:52+02:00</time>
      </trkpt>
      <trkpt lat="46.48605" lon="-0.78742">
        <ele>16</ele>
        <time>2018-05-29T11:49:04+02:00</time>
      </trkpt>
      <trkpt lat="46.48619" lon="-0.78747">
        <ele>16</ele>
        <time>2018-05-29T11:49:16+02:00</time>
      </trkpt>
      <trkpt lat="46.48632" lon="-0.78753">
        <ele>17</ele>
        <time>2018-05-29T11:49:28+02:00</time>
      </trkpt>
      <trkpt lat="46.48646" lon="-0.7876">
        <ele>17</ele>
        <time>2018-05-29T11:49:40+02:00</time>
      </trkpt>
      <trkpt lat="46.4866" lon="-0.78766">
        <ele>18</ele>
        <time>2018-05-29T11:49:54+02:00</time>
      </trkpt>
      <trkpt lat="46.48674" lon="-0.78769">
        <ele>18</ele>
        <time>2018-05-29T11:50:06+02:00</time>
      </trkpt>
      <trkpt lat="46.48694" lon="-0.78775">
        <ele>19</ele>
        <time>2018-05-29T11:50:18+02:00</time>
      </trkpt>
      <trkpt lat="46.48702" lon="-0.7876">
        <ele>20</ele>
        <time>2018-05-29T11:50:30+02:00</time>
      </trkpt>
      <trkpt lat="46.4871" lon="-0.78746">
        <ele>21</ele>
        <time>2018-05-29T11:50:41+02:00</time>
      </trkpt>
      <trkpt lat="46.48721" lon="-0.78736">
        <ele>21</ele>
        <time>2018-05-29T11:50:52+02:00</time>
      </trkpt>
      <trkpt lat="46.48733" lon="-0.78718">
        <ele>22</ele>
        <time>2018-05-29T11:51:04+02:00</time>
      </trkpt>
      <trkpt lat="46.48743" lon="-0.78704">
        <ele>23</ele>
        <time>2018-05-29T11:51:15+02:00</time>
      </trkpt>
      <trkpt lat="46.48752" lon="-0.78692">
        <ele>24</ele>
        <time>2018-05-29T11:51:27+02:00</time>
      </trkpt>
      <trkpt lat="46.48762" lon="-0.78679">
        <ele>24</ele>
        <time>2018-05-29T11:51:41+02:00</time>
      </trkpt>
      <trkpt lat="46.48772" lon="-0.78665">
        <ele>25</ele>
        <time>2018-05-29T11:51:52+02:00</time>
      </trkpt>
      <trkpt lat="46.48783" lon="-0.78652">
        <ele>26</ele>
        <time>2018-05-29T11:52:06+02:00</time>
      </trkpt>
      <trkpt lat="46.488" lon="-0.78638">
        <ele>27</ele>
        <time>2018-05-29T11:52:19+02:00</time>
      </trkpt>
      <trkpt lat="46.48809" lon="-0.78653">
        <ele>27</ele>
        <time>2018-05-29T11:52:43+02:00</time>
      </trkpt>
      <trkpt lat="46.48821" lon="-0.78664">
        <ele>27</ele>
        <time>2018-05-29T11:53:00+02:00</time>
      </trkpt>
    </trkseg>
  </trk>
</gpx>